Time;durP1;ratioP1;P1;durP2;ratioP2;P2;SDS_P1;SDS_P2;PMS_P1;PMS_P2;Temp;Humidity;BMP_temperature;BMP_pressure;BME280_temperature;BME280_humidity;BME280_pressure;Samples;Min_cycle;Max_cycle;Signal;HPM_P1;HPM_P2
2022/04/23 00:01:08;;;;;;;11.95;6.57;;;11.20;99.90;;;;;;4997861;28;20034;-61
2022/04/23 00:03:34;;;;;;;10.18;6.75;;;11.20;99.90;;;;;;4981024;28;20046;-61
2022/04/23 00:06:00;;;;;;;9.98;6.65;;;11.40;99.90;;;;;;4981575;28;20049;-61
2022/04/23 00:08:26;;;;;;;10.20;7.25;;;11.20;99.90;;;;;;4998850;28;20507;-61
2022/04/23 00:10:52;;;;;;;11.48;7.28;;;11.10;99.90;;;;;;4981045;28;20038;-61
2022/04/23 00:13:18;;;;;;;11.85;7.50;;;;;;;;;;4997219;28;20096;-61
2022/04/23 00:15:43;;;;;;;10.68;7.38;;;11.30;99.90;;;;;;4965183;28;20050;-62
2022/04/23 00:18:10;;;;;;;10.00;7.40;;;11.10;99.90;;;;;;4981190;28;20038;-61
2022/04/23 00:20:37;;;;;;;12.25;7.43;;;;;;;;;;4980333;28;20489;-62
2022/04/23 00:23:03;;;;;;;12.20;7.97;;;11.10;99.90;;;;;;4997969;28;20050;-62
2022/04/23 00:25:29;;;;;;;11.02;8.05;;;11.10;99.90;;;;;;4997487;28;20100;-61
2022/04/23 00:27:55;;;;;;;9.55;7.22;;;;;;;;;;4997804;28;20493;-61
2022/04/23 00:30:20;;;;;;;9.18;7.45;;;11.10;99.90;;;;;;4981480;28;20054;-61
2022/04/23 00:32:47;;;;;;;10.65;6.90;;;;;;;;;;4998653;28;20053;-61
2022/04/23 00:35:19;;;;;;;10.82;6.85;;;11.00;99.90;;;;;;4998805;28;20511;-62
2022/04/23 00:37:45;;;;;;;10.70;7.88;;;11.00;99.90;;;;;;4998769;28;20080;-61
2022/04/23 00:40:17;;;;;;;10.60;7.13;;;11.00;99.90;;;;;;4980679;28;20046;-61
2022/04/23 00:42:55;;;;;;;14.73;7.90;;;10.80;99.90;;;;;;4998498;28;20046;-61
2022/04/23 00:45:21;;;;;;;11.77;8.15;;;10.90;99.90;;;;;;4981342;28;20057;-61
2022/04/23 00:47:47;;;;;;;11.63;7.78;;;;;;;;;;4964324;28;20046;-61
2022/04/23 00:50:13;;;;;;;11.77;7.68;;;10.80;99.90;;;;;;4979726;28;20053;-61
2022/04/23 00:52:39;;;;;;;14.32;8.68;;;10.80;99.90;;;;;;4979809;28;20053;-61
2022/04/23 00:55:06;;;;;;;13.23;8.45;;;10.80;99.90;;;;;;4980297;28;20412;-61
2022/04/23 00:57:33;;;;;;;12.48;8.35;;;10.80;99.90;;;;;;4997386;28;20493;-61
2022/04/23 01:00:00;;;;;;;12.27;8.63;;;10.90;99.90;;;;;;4980626;28;20133;-61
2022/04/23 01:02:26;;;;;;;16.08;9.45;;;10.90;99.90;;;;;;4979870;28;20053;-61
2022/04/23 01:04:54;;;;;;;14.07;9.48;;;10.80;99.90;;;;;;4978669;28;20034;-61
2022/04/23 01:07:20;;;;;;;12.20;9.63;;;10.90;99.90;;;;;;4979317;28;20493;-61
2022/04/23 01:09:48;;;;;;;13.48;9.75;;;10.90;99.90;;;;;;4964213;28;20042;-61
2022/04/23 01:12:14;;;;;;;13.85;10.80;;;;;;;;;;4979017;28;20074;-61
2022/04/23 01:15:08;;;;;;;12.30;9.27;;;10.80;99.90;;;;;;4980264;28;20061;-61
2022/04/23 01:17:34;;;;;;;13.02;9.23;;;10.80;99.90;;;;;;4979682;28;20046;-61
2022/04/23 01:20:11;;;;;;;14.00;10.20;;;10.80;99.90;;;;;;4965021;28;20137;-61
2022/04/23 01:22:37;;;;;;;13.50;10.52;;;10.70;99.90;;;;;;4979606;28;20041;-61
2022/04/23 01:25:10;;;;;;;14.02;9.65;;;10.70;99.90;;;;;;4978599;28;20492;-61
2022/04/23 01:27:37;;;;;;;13.77;9.55;;;10.80;99.90;;;;;;4978985;28;20162;-62
2022/04/23 01:30:04;;;;;;;15.00;10.30;;;10.70;99.90;;;;;;4963018;28;20049;-61
2022/04/23 01:32:30;;;;;;;12.57;9.10;;;10.70;99.90;;;;;;4979446;28;20046;-61
2022/04/23 01:34:56;;;;;;;13.10;9.32;;;10.80;99.90;;;;;;4980172;28;20262;-61
2022/04/23 01:37:22;;;;;;;14.63;9.88;;;10.80;99.90;;;;;;4979496;28;20042;-61
2022/04/23 01:39:47;;;;;;;11.55;9.40;;;10.50;99.90;;;;;;4979762;28;20158;-61
2022/04/23 01:42:14;;;;;;;13.00;9.23;;;10.60;99.90;;;;;;4979882;28;20121;-61
2022/04/23 01:44:40;;;;;;;15.45;9.90;;;10.60;99.90;;;;;;4979130;28;20042;-61
2022/04/23 01:47:06;;;;;;;13.00;9.13;;;10.60;99.90;;;;;;4978751;28;20085;-61
2022/04/23 01:49:31;;;;;;;11.70;8.95;;;10.80;99.90;;;;;;4979101;28;20063;-61
2022/04/23 01:51:57;;;;;;;14.13;9.68;;;;;;;;;;4978764;28;20511;-61
2022/04/23 01:54:23;;;;;;;15.10;9.63;;;;;;;;;;4963264;28;20476;-61
2022/04/23 01:56:49;;;;;;;15.60;9.20;;;10.70;99.90;;;;;;4968093;28;20094;-62
2022/04/23 01:59:14;;;;;;;11.52;8.68;;;10.70;99.90;;;;;;4976917;28;20047;-61
2022/04/23 02:01:41;;;;;;;11.50;8.30;;;10.70;99.90;;;;;;4977809;28;20374;-61
2022/04/23 02:04:07;;;;;;;13.93;9.75;;;10.40;99.90;;;;;;4976927;28;20519;-61
2022/04/23 02:06:36;;;;;;;10.63;8.32;;;10.40;99.90;;;;;;4944169;28;20035;-61
2022/04/23 02:09:02;;;;;;;11.95;7.75;;;10.30;99.90;;;;;;4944273;28;20077;-61
2022/04/23 02:11:28;;;;;;;11.60;8.23;;;;;;;;;;4960095;28;20074;-63
2022/04/23 02:13:54;;;;;;;14.45;8.63;;;10.40;99.90;;;;;;4959641;28;20098;-61
2022/04/23 02:16:20;;;;;;;14.43;9.07;;;10.50;99.90;;;;;;4977986;28;20043;-61
2022/04/23 02:18:46;;;;;;;14.68;8.57;;;10.50;99.90;;;;;;4959261;28;20043;-61
2022/04/23 02:21:11;;;;;;;10.27;8.27;;;10.40;99.90;;;;;;4976966;28;20405;-61
2022/04/23 02:23:37;;;;;;;12.48;8.10;;;10.40;99.90;;;;;;4959471;28;20407;-61
2022/04/23 02:26:04;;;;;;;13.02;8.70;;;10.30;99.90;;;;;;4959176;28;20039;-62
2022/04/23 02:28:30;;;;;;;13.57;9.60;;;10.30;99.90;;;;;;4976948;28;20050;-61
2022/04/23 02:30:56;;;;;;;15.40;9.68;;;10.10;99.90;;;;;;4976004;28;20034;-61
2022/04/23 02:33:22;;;;;;;12.30;9.00;;;10.30;99.90;;;;;;4975500;28;20043;-61
2022/04/23 02:35:47;;;;;;;11.80;9.38;;;10.20;99.90;;;;;;4976809;28;20532;-61
2022/04/23 02:38:17;;;;;;;10.35;8.38;;;10.10;99.90;;;;;;4976335;28;20508;-61
2022/04/23 02:40:43;;;;;;;14.00;9.73;;;10.20;99.90;;;;;;4958345;28;20489;-61
2022/04/23 02:43:12;;;;;;;13.35;9.32;;;10.00;99.90;;;;;;4958787;28;20576;-61
2022/04/23 02:45:38;;;;;;;14.82;9.38;;;;;;;;;;4965775;28;20030;-61
2022/04/23 02:48:04;;;;;;;13.10;9.63;;;10.20;99.90;;;;;;4977909;28;20038;-61
2022/04/23 02:50:34;;;;;;;13.20;9.35;;;10.30;99.90;;;;;;4978375;28;20053;-61
2022/04/23 02:53:00;;;;;;;13.55;9.45;;;10.10;99.90;;;;;;4977061;28;20042;-61
2022/04/23 02:55:28;;;;;;;13.32;9.35;;;10.00;99.90;;;;;;4977926;28;20049;-61
2022/04/23 02:57:56;;;;;;;14.75;9.60;;;;;;;;;;4994747;28;20052;-61
2022/04/23 03:00:22;;;;;;;14.40;10.23;;;10.00;99.90;;;;;;4995412;28;20473;-61
2022/04/23 03:02:48;;;;;;;12.73;9.27;;;9.90;99.90;;;;;;4978471;28;20138;-61
2022/04/23 03:05:15;;;;;;;14.52;9.30;;;9.90;99.90;;;;;;4977669;28;20034;-61
2022/04/23 03:07:41;;;;;;;14.95;10.02;;;9.90;99.90;;;;;;4996468;28;20038;-61
2022/04/23 03:10:10;;;;;;;16.77;9.80;;;10.10;99.90;;;;;;4978466;28;20050;-61
2022/04/23 03:12:36;;;;;;;15.73;10.38;;;;;;;;;;4996405;28;20049;-61
2022/04/23 03:15:03;;;;;;;14.90;10.15;;;;;;;;;;4978848;28;20057;-61
2022/04/23 03:17:28;;;;;;;14.93;10.65;;;9.80;99.90;;;;;;4977822;28;20038;-61
2022/04/23 03:19:54;;;;;;;13.40;9.00;;;9.70;99.90;;;;;;4977783;28;20046;-61
2022/04/23 03:22:21;;;;;;;15.00;9.85;;;;;;;;;;4995419;28;20034;-61
2022/04/23 03:24:47;;;;;;;14.60;9.57;;;9.90;99.90;;;;;;4995728;28;20050;-61
2022/04/23 03:27:12;;;;;;;13.32;10.13;;;9.70;99.90;;;;;;4978723;28;20489;-61
2022/04/23 03:29:39;;;;;;;15.57;10.05;;;9.80;99.90;;;;;;4994917;28;20104;-61
2022/04/23 03:32:05;;;;;;;15.07;10.18;;;9.70;99.90;;;;;;4994477;28;20053;-61
2022/04/23 03:34:31;;;;;;;17.10;10.93;;;9.80;99.90;;;;;;4994496;28;20096;-61
2022/04/23 03:36:57;;;;;;;13.80;10.45;;;;;;;;;;4980768;28;20479;-61
2022/04/23 03:39:23;;;;;;;14.50;10.63;;;;;;;;;;4981255;28;20046;-61
2022/04/23 03:41:48;;;;;;;14.85;10.27;;;9.50;99.90;;;;;;4981559;28;20046;-61
2022/04/23 03:44:14;;;;;;;14.52;10.20;;;;;;;;;;4998549;28;20488;-61
2022/04/23 03:46:40;;;;;;;17.95;10.73;;;9.60;99.90;;;;;;4999040;28;20042;-61
2022/04/23 03:49:07;;;;;;;12.32;10.05;;;9.60;99.90;;;;;;4999387;28;20034;-61
2022/04/23 03:51:34;;;;;;;13.23;10.27;;;9.60;99.90;;;;;;4981806;28;20054;-61
2022/04/23 03:54:00;;;;;;;17.73;11.50;;;9.70;99.90;;;;;;4998909;28;20042;-61
2022/04/23 03:56:25;;;;;;;12.48;9.38;;;9.70;99.90;;;;;;4981891;28;20046;-61
2022/04/23 03:58:51;;;;;;;15.35;11.05;;;9.60;99.90;;;;;;4998417;28;20042;-61
2022/04/23 04:01:17;;;;;;;14.45;10.05;;;;;;;;;;4981143;28;20046;-61
2022/04/23 04:03:43;;;;;;;15.63;10.40;;;9.40;99.90;;;;;;4980908;28;20121;-61
2022/04/23 04:06:09;;;;;;;15.95;10.13;;;;;;;;;;4998590;28;20092;-61
2022/04/23 04:08:35;;;;;;;17.85;10.85;;;;;;;;;;4980780;28;20046;-61
2022/04/23 04:11:01;;;;;;;15.43;11.05;;;;;;;;;;4998564;28;20038;-61
2022/04/23 04:13:27;;;;;;;14.40;10.10;;;9.40;99.90;;;;;;4980297;28;20045;-61
2022/04/23 04:15:53;;;;;;;12.90;9.82;;;9.40;99.90;;;;;;4980817;28;20050;-61
2022/04/23 04:18:19;;;;;;;14.60;9.70;;;9.30;99.90;;;;;;4981354;28;20046;-61
2022/04/23 04:20:53;;;;;;;13.63;9.98;;;9.40;99.90;;;;;;4998086;28;20042;-61
2022/04/23 04:23:20;;;;;;;17.23;10.57;;;9.30;99.90;;;;;;4980469;28;20031;-61
2022/04/23 04:25:47;;;;;;;14.60;10.95;;;9.30;99.90;;;;;;4997376;28;20047;-61
2022/04/23 04:28:13;;;;;;;14.30;10.50;;;9.40;99.90;;;;;;4998137;28;20034;-61
2022/04/23 04:33:33;;;;;;;15.55;10.68;;;9.40;99.90;;;;;;4962839;28;20074;-61
2022/04/23 04:35:59;;;;;;;16.05;11.38;;;9.40;99.90;;;;;;4965088;28;20516;-61
2022/04/23 04:38:24;;;;;;;13.98;10.32;;;9.20;99.90;;;;;;4981223;28;20046;-61
2022/04/23 04:40:50;;;;;;;16.98;11.00;;;9.20;99.90;;;;;;4997312;28;20098;-61
2022/04/23 04:43:15;;;;;;;13.80;10.38;;;9.20;99.90;;;;;;4980402;28;20049;-62
2022/04/23 04:45:41;;;;;;;13.80;10.02;;;9.40;99.90;;;;;;4988721;28;20042;-63
2022/04/23 04:48:06;;;;;;;16.20;9.98;;;9.40;99.90;;;;;;4977747;28;20035;-63
2022/04/23 04:50:32;;;;;;;16.30;10.55;;;9.40;99.90;;;;;;4975632;28;20125;-62
2022/04/23 04:52:58;;;;;;;15.13;9.80;;;9.40;99.90;;;;;;4972382;28;20121;-64
2022/04/23 04:55:24;;;;;;;12.38;9.77;;;;;;;;;;4981097;28;20500;-64
2022/04/23 04:57:50;;;;;;;16.25;10.00;;;;;;;;;;4969819;28;20039;-64
2022/04/23 05:00:18;;;;;;;12.40;9.27;;;9.60;99.90;;;;;;4935477;28;20069;-65
2022/04/23 05:02:44;;;;;;;13.43;8.77;;;;;;;;;;4950645;28;20054;-64
2022/04/23 05:05:10;;;;;;;14.20;8.60;;;;;;;;;;4968141;28;20046;-64
2022/04/23 05:07:36;;;;;;;11.05;8.65;;;;;;;;;;4967739;28;20043;-64
2022/04/23 05:10:03;;;;;;;16.15;9.88;;;;;;;;;;4967497;28;20109;-64
2022/04/23 05:12:29;;;;;;;13.75;10.18;;;;;;;;;;4950046;28;20059;-64
2022/04/23 05:14:55;;;;;;;11.98;8.93;;;;;;;;;;4933741;28;20112;-64
2022/04/23 05:17:21;;;;;;;13.82;10.13;;;;;;;;;;4967303;28;20055;-64
2022/04/23 05:19:46;;;;;;;13.70;9.32;;;9.70;99.90;;;;;;4967465;28;20413;-65
2022/04/23 05:22:12;;;;;;;10.60;8.98;;;;;;;;;;4967447;28;20095;-65
2022/04/23 05:24:39;;;;;;;11.73;9.02;;;;;;;;;;4967275;28;20403;-64
2022/04/23 05:27:05;;;;;;;9.95;8.55;;;;;;;;;;4967960;28;20043;-64
2022/04/23 05:29:30;;;;;;;13.02;9.05;;;;;;;;;;4966263;28;20121;-64
2022/04/23 05:31:56;;;;;;;14.35;9.93;;;;;;;;;;4949710;28;20093;-64
2022/04/23 05:34:24;;;;;;;13.52;9.73;;;9.80;99.90;;;;;;4949685;28;20156;-64
2022/04/23 05:36:50;;;;;;;10.77;8.45;;;;;;;;;;4968116;28;20048;-64
2022/04/23 05:39:16;;;;;;;16.33;9.18;;;;;;;;;;4967333;28;20535;-65
2022/04/23 05:41:42;;;;;;;10.82;8.48;;;;;;;;;;4966800;28;20061;-65
2022/04/23 05:44:08;;;;;;;12.25;9.25;;;;;;;;;;4970486;28;20041;-64
2022/04/23 05:46:34;;;;;;;10.77;9.45;;;;;;;;;;4983279;28;20105;-64
2022/04/23 05:49:00;;;;;;;11.70;9.05;;;;;;;;;;4986517;28;20052;-65
2022/04/23 05:51:26;;;;;;;10.13;8.50;;;;;;;;;;4968761;28;20447;-64
2022/04/23 05:53:52;;;;;;;12.23;8.75;;;;;;;;;;4966274;28;20038;-64
2022/04/23 05:56:17;;;;;;;9.82;8.65;;;10.10;99.90;;;;;;4966989;28;20569;-64
2022/04/23 05:58:43;;;;;;;10.82;8.80;;;;;;;;;;4966524;28;20120;-64
2022/04/23 06:01:09;;;;;;;11.30;8.70;;;;;;;;;;4967182;28;20057;-64
2022/04/23 06:03:35;;;;;;;10.60;9.45;;;;;;;;;;4966525;28;20046;-64
2022/04/23 06:06:01;;;;;;;12.55;9.32;;;;;;;;;;4969251;28;20042;-65
2022/04/23 06:08:28;;;;;;;12.57;9.48;;;;;;;;;;4970769;28;20105;-62
2022/04/23 06:10:53;;;;;;;10.55;9.27;;;11.00;99.90;;;;;;4953322;28;20055;-62
2022/04/23 06:13:19;;;;;;;10.98;8.77;;;;;;;;;;4970499;28;20053;-62
2022/04/23 06:15:45;;;;;;;11.32;9.05;;;;;;;;;;4976341;28;20051;-62
2022/04/23 06:18:11;;;;;;;11.13;8.35;;;11.30;99.90;;;;;;4968822;28;20386;-62
2022/04/23 06:20:37;;;;;;;9.50;8.43;;;;;;;;;;4970563;28;20058;-62
2022/04/23 06:23:04;;;;;;;9.80;8.80;;;;;;;;;;4969665;28;20043;-62
2022/04/23 06:25:31;;;;;;;11.50;8.98;;;;;;;;;;4968483;28;20416;-62
2022/04/23 06:27:57;;;;;;;11.88;9.75;;;;;;;;;;4968039;28;20092;-63
2022/04/23 06:30:23;;;;;;;11.23;8.90;;;;;;;;;;5005204;28;20045;-63
2022/04/23 06:32:48;;;;;;;11.88;9.43;;;11.90;99.90;;;;;;4971839;28;20504;-63
2022/04/23 06:35:14;;;;;;;11.90;9.63;;;;;;;;;;4987847;28;20085;-62
2022/04/23 06:37:41;;;;;;;11.32;8.93;;;12.30;99.90;;;;;;4985772;28;20069;-63
2022/04/23 06:40:10;;;;;;;11.38;9.50;;;12.20;99.90;;;;;;4958821;28;20049;-62
2022/04/23 06:42:36;;;;;;;11.95;9.10;;;12.20;99.90;;;;;;4967315;28;20043;-63
2022/04/23 06:45:04;;;;;;;13.07;9.35;;;12.40;99.90;;;;;;4987789;28;20049;-62
2022/04/23 06:47:30;;;;;;;9.98;8.23;;;;;;;;;;4994909;28;20045;-63
2022/04/23 06:49:59;;;;;;;13.10;9.40;;;12.50;99.90;;;;;;4990990;28;20053;-63
2022/04/23 06:52:25;;;;;;;12.48;9.35;;;12.50;99.90;;;;;;4987988;28;20045;-64
2022/04/23 06:54:54;;;;;;;11.38;9.52;;;12.40;99.90;;;;;;5008493;28;20046;-63
2022/04/23 06:57:23;;;;;;;10.60;8.98;;;12.50;99.90;;;;;;4992839;28;20041;-64
2022/04/23 06:59:49;;;;;;;14.13;9.70;;;12.70;99.90;;;;;;5011905;28;20052;-64
2022/04/23 07:02:16;;;;;;;11.23;9.05;;;12.50;99.90;;;;;;4994319;28;20042;-64
2022/04/23 07:04:41;;;;;;;10.45;9.32;;;12.80;99.90;;;;;;5011856;28;20042;-64
2022/04/23 07:07:08;;;;;;;12.27;10.25;;;;;;;;;;5006439;28;20552;-64
2022/04/23 07:09:33;;;;;;;15.43;9.82;;;12.60;99.90;;;;;;4992976;28;20054;-64
2022/04/23 07:11:59;;;;;;;12.00;9.07;;;12.60;99.90;;;;;;4978899;28;20496;-63
2022/04/23 07:14:25;;;;;;;11.40;8.98;;;12.40;99.90;;;;;;4996006;28;20054;-62
2022/04/23 07:16:51;;;;;;;14.90;10.35;;;;;;;;;;5012836;28;20049;-63
2022/04/23 07:19:17;;;;;;;15.40;9.27;;;12.60;99.90;;;;;;5015663;28;20057;-63
2022/04/23 07:21:43;;;;;;;12.05;10.02;;;;;;;;;;4985497;28;20046;-62
2022/04/23 07:24:11;;;;;;;14.68;9.55;;;;;;;;;;4989837;28;20043;-63
2022/04/23 07:26:37;;;;;;;11.95;9.65;;;12.50;99.90;;;;;;4974551;28;20149;-62
2022/04/23 07:29:08;;;;;;;12.52;10.38;;;12.60;99.90;;;;;;4971680;28;20050;-63
2022/04/23 07:31:34;;;;;;;13.18;9.65;;;12.60;99.90;;;;;;4955623;28;20158;-63
2022/04/23 07:39:30;;;;;;;11.05;9.10;;;;;;;;;;4957366;28;20154;-66
2022/04/23 07:41:56;;;;;;;12.85;9.27;;;;;;;;;;4976446;28;20038;-62
2022/04/23 07:44:22;;;;;;;11.52;10.13;;;13.40;99.90;;;;;;4990988;28;20053;-62
2022/04/23 07:46:49;;;;;;;11.48;7.93;;;;;;;;;;4970355;28;20045;-63
2022/04/23 07:49:15;;;;;;;14.05;10.75;;;;;;;;;;4970597;28;20421;-63
2022/04/23 07:51:46;;;;;;;12.55;10.18;;;13.40;99.90;;;;;;4970646;28;20046;-62
2022/04/23 07:54:13;;;;;;;13.57;9.32;;;;;;;;;;4962848;28;20050;-63
2022/04/23 07:56:39;;;;;;;12.20;9.32;;;;;;;;;;4978686;28;20526;-62
2022/04/23 07:59:05;;;;;;;12.57;9.93;;;13.20;99.90;;;;;;4983932;28;20091;-63
2022/04/23 08:01:30;;;;;;;10.48;7.85;;;13.30;99.90;;;;;;4995187;28;20036;-64
2022/04/23 08:03:56;;;;;;;14.02;9.32;;;;;;;;;;4992164;28;20370;-63
2022/04/23 08:06:22;;;;;;;13.63;9.20;;;;;;;;;;4990815;28;20037;-63
2022/04/23 08:08:48;;;;;;;13.15;8.93;;;13.60;99.90;;;;;;4960955;28;20043;-62
2022/04/23 08:11:14;;;;;;;12.18;6.57;;;13.60;99.90;;;;;;4984872;28;20113;-63
2022/04/23 08:13:39;;;;;;;11.32;7.95;;;13.80;99.90;;;;;;5014561;28;20136;-63
2022/04/23 08:16:05;;;;;;;11.00;8.90;;;13.80;99.90;;;;;;5002274;28;20043;-64
2022/04/23 08:18:31;;;;;;;13.23;9.18;;;13.70;99.90;;;;;;4978411;28;20042;-64
2022/04/23 08:20:56;;;;;;;16.48;9.40;;;13.60;99.90;;;;;;5012834;28;20038;-64
2022/04/23 08:23:23;;;;;;;12.25;9.02;;;13.70;99.90;;;;;;5015009;28;20034;-64
2022/04/23 08:25:48;;;;;;;15.40;8.88;;;13.90;99.90;;;;;;5002464;28;20038;-64
2022/04/23 08:30:59;;;;;;;8.93;5.70;;;13.90;99.90;;;;;;4985635;28;20042;-64
2022/04/23 08:33:57;;;;;;;10.02;7.38;;;14.10;99.90;;;;;;4971639;28;20046;-65
2022/04/23 08:36:10;;;;;;;13.05;8.63;;;14.00;99.90;;;;;;4983853;28;20038;-64
2022/04/23 08:38:36;;;;;;;9.60;8.23;;;14.00;99.90;;;;;;4987405;28;20039;-63
2022/04/23 08:41:04;;;;;;;9.27;7.50;;;14.00;99.90;;;;;;4992889;28;20401;-64
2022/04/23 08:43:30;;;;;;;11.27;7.20;;;14.20;99.90;;;;;;4982936;28;21103;-64
2022/04/23 08:45:55;;;;;;;12.75;8.70;;;14.30;99.90;;;;;;4975879;28;20039;-63
2022/04/23 08:48:24;;;;;;;10.98;8.20;;;14.20;99.90;;;;;;4957784;28;20034;-64
2022/04/23 08:50:58;;;;;;;12.18;8.30;;;14.10;99.90;;;;;;4974981;28;20512;-62
2022/04/23 08:53:27;;;;;;;13.35;7.97;;;14.30;99.90;;;;;;4962506;28;20592;-62
2022/04/23 08:55:53;;;;;;;9.50;8.27;;;14.40;99.90;;;;;;4966654;28;20043;-63
2022/04/23 08:58:19;;;;;;;15.93;8.68;;;14.30;99.90;;;;;;4974560;28;20023;-63
2022/04/23 09:00:45;;;;;;;12.98;8.25;;;14.40;99.90;;;;;;4957914;28;20485;-62
2022/04/23 09:03:15;;;;;;;10.05;8.38;;;14.40;99.90;;;;;;4958759;28;20145;-63
2022/04/23 09:05:43;;;;;;;12.27;8.35;;;14.60;99.90;;;;;;4961668;28;20469;-64
2022/04/23 09:08:08;;;;;;;9.35;7.40;;;14.60;99.90;;;;;;4961246;28;20114;-64
2022/04/23 09:10:56;;;;;;;10.02;6.10;;;14.60;99.90;;;;;;4977179;28;20130;-63
2022/04/23 09:13:27;;;;;;;12.10;7.93;;;14.70;99.90;;;;;;4956854;28;20461;-63
2022/04/23 09:24:51;;;;;;;11.20;7.95;;;14.90;99.90;;;;;;4985641;28;19918;-62
2022/04/23 09:27:16;;;;;;;11.65;8.88;;;14.80;99.90;;;;;;4986846;28;20097;-61
2022/04/23 09:30:04;;;;;;;12.30;8.07;;;15.10;99.90;;;;;;4994742;28;20038;-63
2022/04/23 09:32:29;;;;;;;10.77;8.95;;;15.10;99.90;;;;;;4974759;28;20408;-63
2022/04/23 09:35:12;;;;;;;11.75;8.55;;;15.20;99.90;;;;;;4994833;28;20037;-62
2022/04/23 09:40:27;;;;;;;;;;;15.30;99.90;;;;;;4981492;28;20113;-63
2022/04/23 09:42:58;;;;;;;12.38;8.00;;;15.40;99.90;;;;;;4975888;28;19989;-63
2022/04/23 09:45:26;;;;;;;13.70;9.10;;;15.40;99.90;;;;;;4990970;28;20780;-63
2022/04/23 09:47:52;;;;;;;10.82;8.73;;;15.50;99.90;;;;;;4983598;28;20496;-63
2022/04/23 09:50:18;;;;;;;7.90;6.60;;;15.70;99.90;;;;;;4977024;28;20096;-63
2022/04/23 09:52:45;;;;;;;17.35;8.32;;;15.70;99.90;;;;;;4994051;28;20050;-63
2022/04/23 09:55:18;;;;;;;13.95;8.35;;;15.60;99.90;;;;;;5134215;27;20419;-64
2022/04/23 09:57:46;;;;;;;11.25;7.72;;;;;;;;;;5119002;28;20044;-64
2022/04/23 10:00:12;;;;;;;8.70;7.80;;;15.90;99.90;;;;;;5104558;28;20035;-64
2022/04/23 10:02:41;;;;;;;12.10;7.68;;;15.90;99.90;;;;;;5106208;28;20036;-64
2022/04/23 10:05:11;;;;;;;12.82;7.53;;;15.90;99.90;;;;;;5090284;28;20047;-64
2022/04/23 10:07:40;;;;;;;13.45;8.63;;;16.10;99.90;;;;;;5089023;28;20043;-64
2022/04/23 10:10:09;;;;;;;12.23;8.80;;;16.20;99.90;;;;;;5099760;28;20054;-64
2022/04/23 10:12:37;;;;;;;9.85;7.60;;;15.90;99.90;;;;;;5105599;28;20082;-63
2022/04/23 10:15:03;;;;;;;11.85;7.85;;;16.10;99.90;;;;;;5105966;28;20522;-63
2022/04/23 10:17:31;;;;;;;7.10;6.10;;;16.40;99.90;;;;;;5105093;28;20126;-64
2022/04/23 10:19:57;;;;;;;11.15;7.28;;;16.20;99.90;;;;;;5106559;28;20434;-64
2022/04/23 10:22:37;;;;;;;11.07;7.85;;;16.00;99.90;;;;;;5103907;28;20042;-64
2022/04/23 10:25:24;;;;;;;10.48;8.02;;;16.20;99.90;;;;;;5105668;28;20036;-64
2022/04/23 10:27:51;;;;;;;12.75;7.60;;;16.40;99.90;;;;;;5104079;28;20075;-65
2022/04/23 10:30:17;;;;;;;10.32;6.93;;;16.30;99.90;;;;;;5105340;28;20051;-64
2022/04/23 10:32:43;;;;;;;7.90;6.85;;;16.20;99.90;;;;;;5101602;28;20491;-63
2022/04/23 10:35:35;;;;;;;9.93;7.57;;;16.40;99.90;;;;;;5105190;28;20101;-64
2022/04/23 10:38:19;;;;;;;9.82;7.35;;;16.40;99.90;;;;;;5093700;28;20048;-63
2022/04/23 10:40:44;;;;;;;11.40;7.10;;;16.60;99.90;;;;;;5106255;28;20043;-64
2022/04/23 10:43:13;;;;;;;9.50;7.75;;;16.40;99.90;;;;;;5102540;28;20052;-65
2022/04/23 10:45:40;;;;;;;10.45;8.40;;;16.40;99.90;;;;;;5103988;28;20052;-65
2022/04/23 10:48:24;;;;;;;9.93;7.95;;;16.30;99.90;;;;;;5093714;28;20044;-65
2022/04/23 10:51:04;;;;;;;10.95;7.45;;;16.40;99.90;;;;;;5100060;28;20456;-65
2022/04/23 10:53:37;;;;;;;9.23;6.72;;;16.70;99.90;;;;;;5096479;28;20080;-65
2022/04/23 10:56:07;;;;;;;14.45;8.18;;;16.60;99.90;;;;;;5090327;28;20048;-65
2022/04/23 10:58:33;;;;;;;10.32;7.35;;;16.70;99.90;;;;;;5081211;28;20744;-64
2022/04/23 11:01:20;;;;;;;11.75;8.15;;;16.50;99.90;;;;;;5101191;28;20043;-64
2022/04/23 11:03:56;;;;;;;10.50;7.13;;;16.60;99.90;;;;;;5102287;28;20563;-65
2022/04/23 11:12:22;;;;;;;17.10;7.90;;;16.80;99.90;;;;;;5070121;28;20044;-64
2022/04/23 11:14:51;;;;;;;9.20;7.82;;;16.70;99.90;;;;;;5087871;28;20530;-64
2022/04/23 11:17:44;;;;;;;10.10;7.05;;;16.60;99.90;;;;;;5070791;28;20041;-64
2022/04/23 11:20:13;;;;;;;7.70;6.65;;;16.70;99.90;;;;;;5078913;28;20376;-64
2022/04/23 11:22:39;;;;;;;9.10;6.45;;;17.00;99.90;;;;;;5086978;28;20044;-63
2022/04/23 11:25:06;;;;;;;12.10;6.30;;;16.80;99.90;;;;;;5060636;28;20047;-64
2022/04/23 11:27:36;;;;;;;9.88;8.45;;;16.80;99.90;;;;;;5073957;28;20153;-65
2022/04/23 11:30:03;;;;;;;11.45;6.65;;;16.80;99.90;;;;;;5075640;28;20502;-66
2022/04/23 11:32:30;;;;;;;9.85;7.88;;;17.10;99.90;;;;;;5074466;28;20181;-64
2022/04/23 11:34:56;;;;;;;9.05;6.97;;;16.70;99.90;;;;;;5079258;28;20410;-64
2022/04/23 11:37:32;;;;;;;8.45;7.22;;;16.90;99.90;;;;;;5074414;28;20087;-63
2022/04/23 11:40:05;;;;;;;9.73;7.35;;;16.60;99.90;;;;;;5067609;28;20409;-64
2022/04/23 11:42:39;;;;;;;11.23;7.78;;;16.70;99.90;;;;;;5070114;28;20040;-63
2022/04/23 11:45:05;;;;;;;9.45;6.65;;;16.80;99.90;;;;;;5070463;28;20040;-63
2022/04/23 11:47:30;;;;;;;8.88;7.82;;;16.80;99.90;;;;;;5076183;28;20040;-63
2022/04/23 11:50:12;;;;;;;10.40;7.50;;;16.60;99.90;;;;;;5077137;28;20085;-62
2022/04/23 11:52:39;;;;;;;7.57;6.78;;;16.80;99.90;;;;;;5068540;28;20082;-63
2022/04/23 11:55:05;;;;;;;14.25;8.05;;;16.90;99.90;;;;;;5065055;28;20063;-63
2022/04/23 11:57:31;;;;;;;8.75;7.10;;;16.80;99.90;;;;;;5063251;28;20555;-63
2022/04/23 12:00:01;;;;;;;10.50;7.75;;;16.80;99.90;;;;;;5074642;28;20305;-62
2022/04/23 12:02:27;;;;;;;10.73;6.95;;;16.90;99.90;;;;;;5076880;28;20851;-64
2022/04/23 12:04:55;;;;;;;8.98;6.38;;;16.90;99.90;;;;;;5078404;28;20059;-63
2022/04/23 12:07:21;;;;;;;8.43;6.50;;;17.10;99.90;;;;;;5077845;28;20043;-65
2022/04/23 12:09:55;;;;;;;8.57;6.78;;;17.20;99.90;;;;;;5078949;28;20059;-65
2022/04/23 12:12:25;;;;;;;9.13;6.75;;;17.30;99.90;;;;;;5081295;28;20052;-65
2022/04/23 12:15:04;;;;;;;8.70;6.85;;;17.00;99.90;;;;;;5075135;28;20964;-65
2022/04/23 12:17:30;;;;;;;8.45;6.38;;;;;;;;;;5072759;28;20779;-62
2022/04/23 12:19:57;;;;;;;6.72;5.15;;;16.90;99.90;;;;;;5080214;28;20028;-65
2022/04/23 12:22:24;;;;;;;9.73;5.97;;;16.90;99.90;;;;;;5071536;28;21157;-62
2022/04/23 12:24:49;;;;;;;8.10;7.03;;;17.00;99.90;;;;;;5064753;28;20048;-64
2022/04/23 12:27:17;;;;;;;10.73;6.45;;;16.90;99.90;;;;;;5065019;28;20051;-65
2022/04/23 12:40:53;;;;;;;10.70;7.18;;;17.20;99.90;;;;;;5069294;28;20440;-64
2022/04/23 12:43:23;;;;;;;8.32;6.53;;;17.10;99.90;;;;;;5067822;28;20033;-66
2022/04/23 12:45:50;;;;;;;7.07;5.63;;;17.00;99.90;;;;;;5071375;28;20044;-65
2022/04/23 12:48:15;;;;;;;6.03;4.90;;;17.20;99.90;;;;;;5072575;28;20101;-65
2022/04/23 12:50:44;;;;;;;9.38;5.43;;;17.00;99.90;;;;;;5072660;28;20040;-65
2022/04/23 12:53:11;;;;;;;6.72;3.63;;;17.40;99.90;;;;;;5075328;28;21254;-65
2022/04/23 12:55:48;;;;;;;6.93;5.18;;;17.40;99.90;;;;;;5081316;28;20119;-64
2022/04/23 12:58:14;;;;;;;4.38;2.97;;;17.50;99.90;;;;;;5068066;28;20036;-65
2022/04/23 13:00:43;;;;;;;3.25;2.78;;;17.40;99.90;;;;;;5078651;28;20233;-65
2022/04/23 13:03:47;;;;;;;8.43;4.75;;;17.30;99.90;;;;;;5078738;28;20131;-64
2022/04/23 13:08:54;;;;;;;7.80;5.75;;;17.20;99.90;;;;;;5081324;28;20059;-65
2022/04/23 13:08:55;;;;;;;8.00;4.30;;;17.40;99.90;;;;;;5079203;28;20051;-63
2022/04/23 13:11:25;;;;;;;7.38;5.22;;;17.40;99.90;;;;;;5079636;28;20127;-65
2022/04/23 13:13:55;;;;;;;7.70;5.03;;;17.20;99.90;;;;;;5082279;28;20101;-66
2022/04/23 13:16:22;;;;;;;6.00;3.90;;;17.30;99.90;;;;;;5076647;28;20044;-65
2022/04/23 13:18:47;;;;;;;5.47;4.70;;;17.30;99.90;;;;;;5076920;28;20497;-65
2022/04/23 13:21:14;;;;;;;4.72;4.20;;;17.30;99.90;;;;;;5073663;28;20079;-64
2022/04/23 13:23:40;;;;;;;7.80;5.07;;;17.20;99.90;;;;;;5068902;28;20056;-64
2022/04/23 13:26:05;;;;;;;4.35;3.70;;;17.20;99.90;;;;;;5081372;28;20157;-65
2022/04/23 13:28:31;;;;;;;6.45;3.78;;;17.20;99.80;;;;;;5084353;28;20044;-64
2022/04/23 13:30:57;;;;;;;6.68;4.35;;;17.40;99.90;;;;;;5081744;28;20046;-63
2022/04/23 13:33:22;;;;;;;7.95;4.30;;;17.50;98.80;;;;;;5080003;28;20357;-65
2022/04/23 13:35:48;;;;;;;5.45;3.63;;;17.50;99.10;;;;;;5077974;28;20043;-64
2022/04/23 13:38:16;;;;;;;4.90;3.92;;;17.50;98.60;;;;;;5081138;28;20036;-64
2022/04/23 13:40:45;;;;;;;5.78;4.03;;;17.50;98.90;;;;;;5082975;28;20032;-65
2022/04/23 13:43:11;;;;;;;9.73;5.53;;;17.70;97.30;;;;;;5086321;28;20044;-67
2022/04/23 13:45:38;;;;;;;6.50;3.70;;;17.60;99.10;;;;;;5082998;28;20527;-64